Time;durP1;ratioP1;P1;durP2;ratioP2;P2;SDS_P1;SDS_P2;PMS_P1;PMS_P2;Temp;Humidity;BMP_temperature;BMP_pressure;BME280_temperature;BME280_humidity;BME280_pressure;Samples;Min_cycle;Max_cycle;Signal;HPM_P1;HPM_P2
2021/12/05 00:16:56;;;;;;;15.57;4.60;;;;;;;3.49;88.52;99735.25;5070901;28;20033;-63
2021/12/05 00:19:17;;;;;;;18.00;3.93;;;;;;;3.50;87.61;99726.41;5070277;28;20090;-63
2021/12/05 00:21:57;;;;;;;12.13;4.47;;;;;;;3.50;87.63;99728.19;5069454;28;20135;-64
2021/12/05 00:24:25;;;;;;;17.20;3.90;;;;;;;3.46;87.54;99740.78;5070881;28;20029;-64
2021/12/05 00:27:00;;;;;;;19.17;4.40;;;;;;;3.47;87.36;99734.59;5067653;28;20031;-63
2021/12/05 00:29:47;;;;;;;17.00;4.20;;;;;;;3.46;87.34;99734.69;5060645;28;20103;-63
2021/12/05 00:32:19;;;;;;;16.40;3.90;;;;;;;3.50;87.17;99736.06;5070491;28;20384;-63
2021/12/05 00:35:13;;;;;;;17.20;4.87;;;;;;;3.47;87.32;99742.47;5070090;28;20032;-63
2021/12/05 00:38:51;;;;;;;12.97;4.20;;;;;;;3.43;87.18;99730.59;5069467;28;20479;-63
2021/12/05 00:56:30;;;;;;;16.63;4.50;;;;;;;3.22;87.38;99736.16;5070539;28;20031;-63
2021/12/05 01:04:35;;;;;;;17.20;3.70;;;;;;;3.16;87.63;99738.53;5070127;28;20075;-64
2021/12/05 01:07:12;;;;;;;13.20;4.20;;;;;;;3.18;87.84;99749.72;5070074;28;20020;-63
2021/12/05 01:09:44;;;;;;;16.73;4.60;;;;;;;3.14;87.91;99748.38;5068284;28;20028;-64
2021/12/05 01:13:04;;;;;;;20.07;4.67;;;;;;;3.18;87.84;99747.09;5069735;28;20021;-64
2021/12/05 01:15:08;;;;;;;16.30;4.07;;;;;;;3.17;87.93;99748.06;5066094;28;20029;-64
2021/12/05 01:17:59;;;;;;;13.47;3.80;;;;;;;3.16;87.67;99749.88;5060342;28;20605;-63
2021/12/05 01:20:26;;;;;;;20.77;4.00;;;;;;;3.11;87.82;99752.94;5069534;28;20024;-63
2021/12/05 01:22:59;;;;;;;18.90;4.73;;;;;;;3.05;87.65;99752.72;5069281;28;20029;-63
2021/12/05 01:33:30;;;;;;;19.57;4.60;;;;;;;2.84;88.41;99752.16;5069242;28;20036;-63
2021/12/05 01:57:33;;;;;;;18.23;5.03;;;;;;;2.48;89.40;99741.59;5068823;28;20059;-63
2021/12/05 02:03:10;;;;;;;20.17;5.20;;;;;;;2.47;89.82;99739.97;5056638;28;20115;-63
2021/12/05 02:29:28;;;;;;;19.57;4.80;;;;;;;2.37;90.14;99732.16;5061378;28;20077;-63
2021/12/05 02:30:50;;;;;;;18.83;5.13;;;;;;;2.43;90.64;99726.34;5068548;28;20044;-63
2021/12/05 02:33:33;;;;;;;17.40;5.07;;;;;;;2.42;90.63;99726.47;5068209;28;20032;-63
2021/12/05 02:39:06;;;;;;;18.53;5.00;;;;;;;2.47;90.78;99730.31;5067204;28;20041;-63
2021/12/05 02:41:44;;;;;;;22.43;5.67;;;;;;;2.48;91.10;99733.75;5066391;28;20020;-63
2021/12/05 02:44:31;;;;;;;22.13;5.50;;;;;;;2.45;90.75;99723.56;5068855;28;20033;-63
2021/12/05 02:47:07;;;;;;;14.90;4.80;;;;;;;2.45;90.72;99710.47;5060856;28;20043;-63
2021/12/05 02:49:42;;;;;;;21.87;4.83;;;;;;;2.49;90.98;99724.91;5067004;28;20028;-63
2021/12/05 02:52:11;;;;;;;23.47;5.17;;;;;;;2.51;91.19;99722.97;5068562;28;20036;-63
2021/12/05 02:54:49;;;;;;;;;;;;;;;2.53;91.09;99720.22;5066955;28;20032;-63
2021/12/05 02:57:19;;;;;;;18.57;5.07;;;;;;;2.55;91.15;99731.38;5064676;28;19908;-63
2021/12/05 02:59:47;;;;;;;23.75;5.40;;;;;;;2.59;91.14;99728.28;5066848;28;20020;-63
2021/12/05 03:02:16;;;;;;;17.23;4.47;;;;;;;2.60;91.38;99723.88;5068753;28;20035;-63
2021/12/05 03:04:46;;;;;;;17.55;4.93;;;;;;;2.60;91.12;99727.34;5068573;28;20056;-63
2021/12/05 03:07:14;;;;;;;22.10;5.03;;;;;;;2.62;91.39;99720.16;5071740;28;20396;-63
2021/12/05 03:09:41;;;;;;;18.70;4.63;;;;;;;2.68;91.58;99724.81;5070693;28;20021;-63
2021/12/05 03:12:10;;;;;;;20.80;5.00;;;;;;;2.73;91.54;99727.00;5071905;28;20132;-63
2021/12/05 03:14:36;;;;;;;18.10;4.03;;;;;;;2.75;91.24;99719.81;5072233;28;20103;-63
2021/12/05 03:17:01;;;;;;;17.87;4.53;;;;;;;2.76;91.47;99722.28;5077912;28;20190;-63
2021/12/05 03:19:27;;;;;;;19.37;4.40;;;;;;;2.78;91.42;99715.09;5070321;28;20506;-63
2021/12/05 03:21:53;;;;;;;15.57;3.90;;;;;;;2.80;91.16;99728.03;5072336;28;20031;-63
2021/12/05 03:24:21;;;;;;;21.50;4.50;;;;;;;2.82;91.52;99725.28;5071541;28;20031;-63
2021/12/05 03:26:49;;;;;;;13.23;4.60;;;;;;;2.80;91.43;99722.78;5071185;28;20028;-63
2021/12/05 03:29:16;;;;;;;21.20;4.70;;;;;;;2.79;91.27;99719.34;5069647;28;20028;-64
2021/12/05 03:31:42;;;;;;;13.50;4.13;;;;;;;2.79;91.18;99723.78;5071980;28;20047;-63
2021/12/05 03:34:11;;;;;;;19.43;4.77;;;;;;;2.79;91.08;99724.59;5071279;28;20063;-64
2021/12/05 03:36:39;;;;;;;15.88;4.75;;;;;;;2.79;91.16;99723.78;5071318;28;20484;-63
2021/12/05 03:39:08;;;;;;;16.67;4.97;;;;;;;2.77;91.16;99723.91;5070137;28;20028;-64
2021/12/05 03:41:33;;;;;;;16.80;4.70;;;;;;;2.75;91.40;99719.81;5071532;28;20028;-63
2021/12/05 03:44:00;;;;;;;18.93;4.90;;;;;;;2.75;91.52;99725.88;5071530;28;20073;-63
2021/12/05 03:46:26;;;;;;;13.20;4.63;;;;;;;2.75;91.57;99725.03;5070886;28;20407;-64
2021/12/05 03:48:56;;;;;;;16.93;4.63;;;;;;;2.77;91.32;99720.47;5070030;28;20108;-64
2021/12/05 03:51:23;;;;;;;16.00;4.73;;;;;;;2.77;91.44;99723.91;5071400;28;20452;-64
2021/12/05 03:53:49;;;;;;;18.97;4.47;;;;;;;2.76;91.64;99721.44;5071021;28;20024;-64
2021/12/05 03:56:16;;;;;;;12.37;4.30;;;;;;;2.75;91.51;99730.28;5070848;28;20036;-63
2021/12/05 03:58:42;;;;;;;18.20;4.60;;;;;;;2.74;91.67;99721.59;5070432;28;20055;-64
2021/12/05 04:01:10;;;;;;;15.77;4.33;;;;;;;2.75;91.51;99731.09;5071015;28;20554;-63
2021/12/05 04:03:37;;;;;;;16.73;4.90;;;;;;;2.74;91.76;99724.22;5070570;28;20107;-64
2021/12/05 04:06:04;;;;;;;16.40;4.83;;;;;;;2.75;91.82;99733.72;5070703;28;20797;-64
2021/12/05 04:08:30;;;;;;;20.40;4.87;;;;;;;2.77;91.68;99729.16;5069946;28;20029;-64
2021/12/05 04:11:06;;;;;;;13.87;4.60;;;;;;;2.79;91.94;99727.22;5070921;28;20545;-63
2021/12/05 04:13:33;;;;;;;18.93;5.20;;;;;;;2.80;92.02;99726.25;5070762;28;20032;-64
2021/12/05 04:16:03;;;;;;;12.87;4.77;;;;;;;2.84;92.05;99731.19;5070529;28;20032;-64
2021/12/05 04:18:28;;;;;;;14.50;5.50;;;;;;;2.86;92.19;99729.25;5069217;28;20035;-63
2021/12/05 04:20:54;;;;;;;12.40;4.90;;;;;;;2.88;92.32;99735.16;5070664;28;20429;-63
2021/12/05 04:23:20;;;;;;;15.00;5.27;;;;;;;2.88;92.06;99733.34;5070484;28;20086;-64
2021/12/05 04:25:49;;;;;;;14.40;5.93;;;;;;;2.90;92.12;99722.75;5070529;28;20106;-64
2021/12/05 04:28:15;;;;;;;16.67;5.30;;;;;;;2.93;92.03;99731.16;5068567;28;20035;-64
2021/12/05 04:30:41;;;;;;;14.00;5.67;;;;;;;2.95;92.23;99723.13;5070331;28;20020;-64
2021/12/05 04:33:06;;;;;;;16.47;5.77;;;;;;;2.97;91.99;99713.31;5069958;28;20024;-64
2021/12/05 04:35:32;;;;;;;16.43;5.77;;;;;;;2.97;92.05;99723.81;5069984;28;20024;-63
2021/12/05 04:37:57;;;;;;;12.47;5.80;;;;;;;2.92;92.12;99705.91;5069053;28;20036;-63
2021/12/05 04:40:23;;;;;;;19.30;6.33;;;;;;;3.00;92.21;99724.31;5066967;28;20029;-64
2021/12/05 04:42:49;;;;;;;16.17;6.40;;;;;;;2.99;91.96;99727.91;5069691;28;20033;-63
2021/12/05 04:45:24;;;;;;;12.67;5.50;;;;;;;3.00;92.27;99716.47;5070179;28;20142;-63
2021/12/05 04:47:50;;;;;;;17.33;6.73;;;;;;;3.00;91.83;99718.25;5069564;28;20028;-64
2021/12/05 04:50:16;;;;;;;14.50;5.93;;;;;;;2.99;92.32;99727.09;5069536;28;20149;-63
2021/12/05 04:52:42;;;;;;;14.40;6.33;;;;;;;2.99;92.44;99719.22;5069749;28;20476;-64
2021/12/05 04:55:08;;;;;;;15.43;6.20;;;;;;;3.00;92.17;99728.75;5069726;28;20036;-63
2021/12/05 04:57:34;;;;;;;15.00;6.13;;;;;;;3.00;92.33;99723.50;5069113;28;20498;-64
2021/12/05 04:59:59;;;;;;;14.63;5.47;;;;;;;2.99;92.63;99714.81;5069747;28;20020;-64
2021/12/05 05:02:25;;;;;;;13.20;5.73;;;;;;;2.98;92.29;99718.41;5069832;28;20024;-64
2021/12/05 05:04:51;;;;;;;15.60;5.90;;;;;;;2.99;92.33;99719.22;5069530;28;20016;-64
2021/12/05 05:07:25;;;;;;;13.70;6.10;;;;;;;2.99;92.43;99727.91;5069942;28;20062;-63
2021/12/05 05:09:58;;;;;;;14.43;5.93;;;;;;;3.01;92.74;99720.72;5068547;28;20013;-64
2021/12/05 05:12:24;;;;;;;15.07;6.27;;;;;;;3.02;92.82;99725.00;5069210;28;20032;-64
2021/12/05 05:14:51;;;;;;;7.97;5.37;;;;;;;3.03;92.60;99738.94;5069962;28;20024;-63
2021/12/05 05:17:16;;;;;;;10.60;5.77;;;;;;;3.03;92.75;99734.50;5069041;28;20032;-64
2021/12/05 05:19:48;;;;;;;13.13;5.27;;;;;;;3.03;92.74;99733.69;5068528;28;20033;-63
2021/12/05 05:27:33;;;;;;;12.27;5.07;;;;;;;3.04;93.05;99736.16;5066228;28;20029;-64
2021/12/05 05:41:23;;;;;;;11.63;5.13;;;;;;;3.03;93.08;99750.25;5068809;28;20041;-64
2021/12/05 05:43:58;;;;;;;17.37;5.03;;;;;;;3.03;93.01;99754.66;5068486;28;20064;-64
2021/12/05 05:46:39;;;;;;;11.03;4.60;;;;;;;3.03;93.15;99754.66;5068616;28;20016;-64
2021/12/05 05:49:15;;;;;;;10.13;4.63;;;;;;;3.02;93.01;99763.50;5067064;28;20028;-64
2021/12/05 05:51:40;;;;;;;9.07;4.50;;;;;;;3.00;93.09;99768.09;5069187;28;20024;-64
2021/12/05 05:54:06;;;;;;;8.37;4.57;;;;;;;3.02;93.23;99763.50;5069058;28;20020;-64
2021/12/05 05:56:33;;;;;;;9.13;4.57;;;;;;;3.03;92.87;99763.34;5068758;28;20055;-64
2021/12/05 05:59:07;;;;;;;9.73;4.57;;;;;;;3.03;92.96;99767.78;5066671;28;20028;-64
2021/12/05 06:04:19;;;;;;;7.17;4.17;;;;;;;3.01;93.30;99767.94;5036368;28;20119;-64
2021/12/05 06:06:44;;;;;;;9.20;4.57;;;;;;;3.03;93.02;99771.22;5068952;28;20029;-64
2021/12/05 06:09:10;;;;;;;10.40;4.17;;;;;;;3.04;92.97;99777.28;5067350;28;20017;-64
2021/12/05 06:11:35;;;;;;;8.27;3.90;;;;;;;3.00;93.00;99773.31;5068605;28;20020;-64
2021/12/05 06:14:02;;;;;;;6.77;3.70;;;;;;;3.00;92.93;99782.00;5068645;28;20100;-64
2021/12/05 06:16:28;;;;;;;6.80;3.90;;;;;;;3.02;92.52;99787.13;5073170;28;20028;-64
2021/12/05 06:18:53;;;;;;;6.23;3.60;;;;;;;3.01;92.42;99790.72;5067304;28;20031;-64
2021/12/05 06:21:19;;;;;;;9.00;4.00;;;;;;;2.98;92.65;99783.97;5068879;28;20025;-64
2021/12/05 06:23:45;;;;;;;7.07;4.10;;;;;;;2.97;92.41;99797.22;5066185;28;20037;-64
2021/12/05 06:26:14;;;;;;;6.80;4.10;;;;;;;2.96;92.61;99795.56;5060471;28;20024;-64
2021/12/05 06:28:42;;;;;;;7.85;3.80;;;;;;;2.94;92.86;99798.34;5066203;28;20024;-63
2021/12/05 06:42:20;;;;;;;5.73;3.83;;;;;;;2.88;92.83;99808.56;5071462;28;20040;-64
2021/12/05 06:47:30;;;;;;;5.27;3.70;;;;;;;2.79;92.76;99808.50;5060019;28;20557;-64
2021/12/05 06:49:56;;;;;;;5.30;3.87;;;;;;;2.82;92.80;99814.41;5071282;28;20020;-64
2021/12/05 06:52:23;;;;;;;8.67;3.97;;;;;;;2.80;92.78;99819.81;5072162;28;20093;-64
2021/12/05 06:54:49;;;;;;;4.93;3.83;;;;;;;2.79;92.68;99821.59;5071752;28;20025;-64
2021/12/05 06:57:15;;;;;;;6.73;4.03;;;;;;;2.79;92.67;99831.25;5072518;28;20032;-64
2021/12/05 06:59:41;;;;;;;6.10;3.97;;;;;;;2.79;92.97;99837.31;5070620;28;20036;-64
2021/12/05 07:02:08;;;;;;;6.90;4.00;;;;;;;2.80;92.76;99840.78;5072049;28;20111;-64
2021/12/05 07:04:49;;;;;;;6.43;4.00;;;;;;;2.79;92.98;99855.69;5074417;28;20032;-64
2021/12/05 07:07:22;;;;;;;5.40;4.03;;;;;;;2.80;92.98;99849.47;5072116;28;20055;-64
2021/12/05 07:09:48;;;;;;;6.63;3.83;;;;;;;2.80;93.09;99856.50;5069493;28;20388;-64
2021/12/05 07:15:09;;;;;;;5.50;4.23;;;;;;;2.80;92.87;99865.19;5040372;28;20036;-63
2021/12/05 07:20:26;;;;;;;7.03;4.50;;;;;;;2.79;93.32;99860.09;5071674;28;20525;-64
2021/12/05 07:23:14;;;;;;;6.57;4.30;;;;;;;2.80;93.08;99859.94;5071511;28;20028;-64
2021/12/05 07:25:52;;;;;;;6.67;4.30;;;;;;;2.76;93.11;99871.69;5069427;28;20062;-64
2021/12/05 07:42:23;;;;;;;9.67;5.23;;;;;;;2.86;93.35;99876.06;5021178;28;20048;-63
2021/12/05 07:44:49;;;;;;;10.03;5.40;;;;;;;2.89;93.36;99889.75;5050435;28;20475;-63
2021/12/05 07:47:18;;;;;;;6.33;4.93;;;;;;;2.92;93.27;99893.88;5065887;28;20032;-63
2021/12/05 07:49:45;;;;;;;8.82;5.63;;;;;;;2.90;93.42;99895.81;5066112;28;20107;-63
2021/12/05 07:52:15;;;;;;;6.27;5.50;;;;;;;2.92;93.52;99902.56;5067914;28;20396;-63
2021/12/05 07:54:45;;;;;;;6.73;5.33;;;;;;;2.93;93.30;99898.97;5069653;28;20032;-64
2021/12/05 07:57:19;;;;;;;7.17;5.43;;;;;;;2.94;93.27;99892.75;5066608;28;20025;-64
2021/12/05 08:16:17;;;;;;;8.03;6.17;;;;;;;3.00;93.66;99894.78;5065542;28;20077;-64
2021/12/05 08:18:43;;;;;;;9.10;6.15;;;;;;;3.01;93.63;99904.31;5065279;28;20142;-64
2021/12/05 08:21:09;;;;;;;10.23;6.90;;;;;;;3.03;93.46;99906.78;5069498;28;20104;-64
2021/12/05 08:23:35;;;;;;;13.77;7.00;;;;;;;3.04;93.71;99909.25;5051008;28;20028;-62
2021/12/05 08:28:57;;;;;;;9.07;6.40;;;;;;;3.10;93.52;99916.53;5063889;28;20032;-62
2021/12/05 08:34:20;;;;;;;9.60;7.17;;;;;;;3.14;93.46;99917.06;5068684;28;20032;-62
2021/12/05 08:42:36;;;;;;;14.80;7.53;;;;;;;3.25;93.42;99930.00;5068002;28;20039;-62
2021/12/05 09:26:04;;;;;;;8.67;6.73;;;;;;;3.45;92.58;100000.75;5069693;28;20028;-63
2021/12/05 09:38:27;;;;;;;9.03;6.80;;;;;;;3.49;92.85;100004.75;5066666;28;20111;-63
2021/12/05 10:09:53;;;;;;;9.80;6.77;;;;;;;3.41;92.49;100056.16;5066103;28;20032;-62
2021/12/05 10:15:30;;;;;;;7.30;6.50;;;;;;;3.51;92.67;100073.69;5055030;28;20032;-63
2021/12/05 10:38:15;;;;;;;21.07;9.47;;;;;;;3.51;92.91;100094.69;5012517;28;20170;-63
2021/12/05 10:41:19;;;;;;;11.17;7.90;;;;;;;3.50;92.88;100096.50;5057508;28;20082;-63
2021/12/05 10:43:50;;;;;;;15.73;8.63;;;;;;;3.50;92.65;100099.09;5058145;28;20031;-63
2021/12/05 10:46:18;;;;;;;8.43;7.27;;;;;;;3.51;92.68;100094.69;5061048;28;20564;-63
2021/12/05 10:48:53;;;;;;;9.47;7.40;;;;;;;3.51;92.92;100095.50;5067332;28;20111;-63
2021/12/05 10:51:24;;;;;;;8.30;7.17;;;;;;;3.52;92.88;100106.84;5062048;28;20049;-63
2021/12/05 10:53:53;;;;;;;10.53;7.70;;;;;;;3.50;92.96;100101.72;5065393;28;20535;-63
2021/12/05 10:56:25;;;;;;;9.13;7.37;;;;;;;3.50;92.80;100101.72;5064614;28;20028;-63
2021/12/05 10:58:53;;;;;;;11.17;7.60;;;;;;;3.50;92.82;100099.09;5064941;28;20369;-63
2021/12/05 11:01:23;;;;;;;9.87;7.60;;;;;;;3.51;93.11;100100.75;5062817;28;20060;-63
2021/12/05 11:04:05;;;;;;;11.60;8.70;;;;;;;3.55;93.29;100096.06;5061869;28;20040;-63
2021/12/05 11:06:37;;;;;;;11.83;8.77;;;;;;;3.57;93.04;100099.34;5066642;28;20506;-63
2021/12/05 11:09:07;;;;;;;11.00;9.10;;;;;;;3.57;93.12;100107.22;5067206;28;20024;-63
2021/12/05 11:11:35;;;;;;;12.97;10.03;;;;;;;3.59;92.91;100108.75;5068162;28;20471;-63
2021/12/05 11:14:03;;;;;;;11.93;10.03;;;;;;;3.61;93.26;100113.84;5068522;28;20096;-63
2021/12/05 11:16:54;;;;;;;14.10;11.30;;;;;;;3.60;93.11;100113.03;5067696;28;20021;-63
2021/12/05 11:19:43;;;;;;;18.73;12.47;;;;;;;3.62;92.98;100120.75;5067567;28;20501;-63
2021/12/05 11:22:24;;;;;;;16.47;12.63;;;;;;;3.62;93.04;100121.56;5044463;28;20514;-63
2021/12/05 11:24:55;;;;;;;15.00;11.80;;;;;;;3.61;93.00;100124.34;5068074;28;20021;-63
2021/12/05 11:27:33;;;;;;;16.03;12.60;;;;;;;3.61;92.90;100132.22;5061793;28;20052;-63
2021/12/05 11:30:22;;;;;;;14.27;11.77;;;;;;;3.62;92.92;100131.25;5058736;28;20027;-63
2021/12/05 11:32:57;;;;;;;15.47;12.43;;;;;;;3.65;92.92;100131.78;5041147;28;20099;-63
2021/12/05 11:35:42;;;;;;;14.40;11.27;;;;;;;3.68;93.03;100135.91;5040707;28;20078;-63
2021/12/05 11:38:21;;;;;;;14.00;11.33;;;;;;;3.71;93.23;100139.09;5041457;28;20028;-63
2021/12/05 11:41:10;;;;;;;12.25;9.77;;;;;;;3.67;92.91;100142.16;5055495;28;20526;-63
2021/12/05 11:43:39;;;;;;;13.52;10.40;;;;;;;3.61;92.52;100146.19;5057829;28;20524;-63
2021/12/05 11:46:12;;;;;;;11.75;10.20;;;;;;;3.58;92.40;100140.38;5060853;28;20038;-63
2021/12/05 11:48:46;;;;;;;12.77;10.17;;;;;;;3.56;92.72;100148.41;5059774;28;20028;-63
2021/12/05 11:51:20;;;;;;;13.07;11.40;;;;;;;3.59;92.77;100144.66;5065926;28;20082;-63
2021/12/05 11:53:58;;;;;;;16.37;11.63;;;;;;;3.64;92.82;100152.94;5061335;28;20086;-63
2021/12/05 11:56:29;;;;;;;14.50;12.20;;;;;;;3.70;92.97;100157.63;5061654;28;20075;-63
2021/12/05 11:59:21;;;;;;;18.10;12.07;;;;;;;3.76;93.15;100158.84;5059509;28;20085;-62
2021/12/05 12:01:59;;;;;;;13.77;11.87;;;;;;;3.76;92.70;100162.31;5059280;28;20117;-63
2021/12/05 12:04:37;;;;;;;15.30;12.40;;;;;;;3.80;92.53;100157.59;5058989;28;20032;-63
2021/12/05 12:07:34;;;;;;;12.80;11.10;;;;;;;3.82;92.26;100172.25;5059957;28;20052;-63
2021/12/05 12:09:59;;;;;;;14.80;11.87;;;;;;;3.79;92.12;100167.28;5062617;28;20048;-63
2021/12/05 12:12:24;;;;;;;11.97;10.70;;;;;;;3.81;92.27;100167.97;5061208;28;20079;-63
2021/12/05 12:14:50;;;;;;;12.10;9.97;;;;;;;3.79;92.35;100167.28;5061682;28;20059;-63
2021/12/05 12:17:17;;;;;;;9.93;8.13;;;;;;;3.80;91.69;100171.56;5067691;28;20076;-63
2021/12/05 12:19:45;;;;;;;9.20;8.20;;;;;;;3.76;91.69;100175.44;5060384;28;20549;-63
2021/12/05 12:22:10;;;;;;;8.13;7.10;;;;;;;3.73;91.61;100167.81;5061852;28;20597;-63
2021/12/05 12:24:37;;;;;;;10.63;7.20;;;;;;;3.76;91.53;100180.69;5069523;28;20041;-63
2021/12/05 12:27:03;;;;;;;8.80;7.60;;;;;;;3.78;91.45;100183.19;5069600;28;20036;-63
2021/12/05 12:29:29;;;;;;;10.90;7.80;;;;;;;3.79;91.14;100180.41;5067143;28;20028;-63
2021/12/05 12:32:01;;;;;;;10.87;8.37;;;;;;;3.81;90.97;100185.50;5069649;28;20035;-63
2021/12/05 12:34:27;;;;;;;10.20;7.80;;;;;;;3.80;90.88;100183.88;5069173;28;20031;-63
2021/12/05 12:36:59;;;;;;;10.13;9.13;;;;;;;3.84;91.26;100196.56;5068461;28;20028;-63
2021/12/05 12:39:40;;;;;;;10.90;8.43;;;;;;;3.85;91.00;100197.38;5065928;28;20029;-63
2021/12/05 12:42:26;;;;;;;10.10;8.90;;;;;;;3.86;90.95;100196.41;5069151;28;20036;-63
2021/12/05 12:45:21;;;;;;;11.37;8.90;;;;;;;3.88;90.58;100195.28;5068292;28;20028;-63
2021/12/05 12:47:55;;;;;;;13.37;9.63;;;;;;;3.90;90.76;100193.34;5056158;28;20407;-63
2021/12/05 12:50:34;;;;;;;12.60;9.50;;;;;;;3.94;90.64;100201.78;5068988;28;20025;-63
2021/12/05 12:53:12;;;;;;;11.53;9.77;;;;;;;3.93;90.40;100210.63;5067303;28;20033;-63
2021/12/05 12:55:53;;;;;;;12.52;11.05;;;;;;;3.90;90.54;100210.91;5067930;28;20031;-63
2021/12/05 12:58:48;;;;;;;13.27;10.37;;;;;;;3.92;90.72;100212.41;5067676;28;20428;-63
2021/12/05 13:01:43;;;;;;;13.60;11.60;;;;;;;3.89;90.75;100202.22;5067299;28;20070;-63
2021/12/05 13:12:40;;;;;;;17.73;13.30;;;;;;;4.03;90.84;100222.75;5068357;28;20032;-63
2021/12/05 13:15:33;;;;;;;15.57;12.50;;;;;;;4.05;90.94;100230.50;5069233;28;20025;-63
2021/12/05 13:18:05;;;;;;;13.80;11.90;;;;;;;4.02;90.76;100228.97;5065063;28;20060;-63
2021/12/05 13:20:53;;;;;;;15.70;12.00;;;;;;;3.98;90.64;100230.22;5066763;28;20094;-63
2021/12/05 13:23:37;;;;;;;15.60;12.77;;;;;;;3.93;90.44;100235.09;5067797;28;20040;-63
2021/12/05 13:26:19;;;;;;;13.87;12.07;;;;;;;3.88;90.05;100237.31;5061602;28;20032;-63
2021/12/05 13:28:56;;;;;;;14.97;12.73;;;;;;;3.88;90.12;100233.88;5063928;28;20060;-63
2021/12/05 13:31:27;;;;;;;14.73;12.53;;;;;;;3.89;90.42;100240.78;5062422;28;20021;-63
2021/12/05 13:34:15;;;;;;;17.60;12.97;;;;;;;3.88;90.35;100245.19;5068167;28;20024;-63
2021/12/05 13:36:43;;;;;;;14.73;12.30;;;;;;;3.87;90.48;100250.59;5063231;28;20057;-63
2021/12/05 13:39:37;;;;;;;15.13;12.33;;;;;;;3.90;90.59;100256.41;5065121;28;20028;-63
2021/12/05 13:42:25;;;;;;;16.63;12.20;;;;;;;3.93;90.35;100258.72;5067605;28;20021;-63
2021/12/05 13:44:59;;;;;;;13.90;11.80;;;;;;;3.94;90.59;100256.94;5062376;28;20031;-63
2021/12/05 13:47:31;;;;;;;14.20;11.67;;;;;;;3.96;90.43;100260.25;5063170;28;20111;-63
2021/12/05 13:50:16;;;;;;;13.67;11.40;;;;;;;3.97;90.21;100261.91;5066037;28;20081;-63
2021/12/05 13:52:43;;;;;;;14.90;11.53;;;;;;;4.01;90.14;100265.91;5060066;28;20109;-63
2021/12/05 13:55:42;;;;;;;11.60;10.23;;;;;;;4.03;90.03;100270.03;5066466;28;20028;-63
2021/12/05 13:58:35;;;;;;;11.27;9.55;;;;;;;3.98;90.03;100269.63;5064076;28;21159;-63
2021/12/05 14:01:15;;;;;;;13.67;10.17;;;;;;;3.97;89.64;100267.97;5067894;28;20048;-63
2021/12/05 14:04:11;;;;;;;12.70;10.10;;;;;;;4.02;90.07;100272.81;5063757;28;20032;-63
2021/12/05 14:06:36;;;;;;;12.47;10.10;;;;;;;4.04;90.04;100270.84;5067506;28;20484;-63
2021/12/05 14:09:31;;;;;;;13.17;10.87;;;;;;;4.11;90.39;100286.91;5067647;28;20024;-63
2021/12/05 14:12:02;;;;;;;12.33;10.53;;;;;;;4.15;90.39;100290.91;5067048;28;20032;-63
2021/12/05 14:14:37;;;;;;;13.40;11.00;;;;;;;4.15;90.52;100288.28;5068749;28;20028;-63
2021/12/05 14:17:07;;;;;;;12.07;10.00;;;;;;;4.13;90.14;100295.47;5067187;28;20457;-63
2021/12/05 14:19:35;;;;;;;11.67;9.97;;;;;;;4.13;90.03;100298.09;5061943;28;20035;-63
2021/12/05 14:22:04;;;;;;;11.97;10.53;;;;;;;4.14;89.93;100302.38;5065437;28;20028;-63
2021/12/05 14:24:34;;;;;;;12.33;10.80;;;;;;;4.18;89.92;100314.25;5058950;28;20028;-63
2021/12/05 14:27:03;;;;;;;13.07;9.87;;;;;;;4.19;89.88;100322.00;5057667;28;20048;-63
2021/12/05 14:29:29;;;;;;;14.20;10.18;;;;;;;4.24;89.81;100329.47;5055795;28;20123;-63
2021/12/05 14:32:06;;;;;;;14.07;9.87;;;;;;;4.25;90.22;100331.13;5058535;28;20508;-63
2021/12/05 14:34:31;;;;;;;11.47;9.63;;;;;;;4.28;89.93;100338.72;5059031;28;20029;-63
2021/12/05 14:37:02;;;;;;;10.93;9.83;;;;;;;4.26;89.65;100351.16;5057721;28;20021;-63
2021/12/05 14:39:34;;;;;;;10.47;9.20;;;;;;;4.25;89.89;100346.88;5056832;28;20028;-63
2021/12/05 14:42:04;;;;;;;10.73;8.97;;;;;;;4.25;89.90;100360.03;5057696;28;20480;-63
2021/12/05 14:44:33;;;;;;;11.37;9.60;;;;;;;4.25;89.63;100362.66;5063915;28;20420;-63
2021/12/05 14:47:04;;;;;;;11.63;9.77;;;;;;;4.25;89.45;100368.75;5068174;28;20495;-63
2021/12/05 14:49:34;;;;;;;11.07;9.80;;;;;;;4.25;89.38;100368.75;5074762;28;20036;-63
2021/12/05 14:52:01;;;;;;;11.97;9.73;;;;;;;4.26;89.19;100378.28;5061898;28;20021;-63
2021/12/05 14:54:34;;;;;;;11.40;9.73;;;;;;;4.22;89.04;100368.19;5066152;28;20085;-63
2021/12/05 14:57:03;;;;;;;11.27;9.17;;;;;;;4.30;89.19;100376.19;5064448;28;20395;-64
2021/12/05 14:59:29;;;;;;;11.97;10.03;;;;;;;4.25;89.34;100378.41;5066157;28;20032;-64
2021/12/05 15:01:57;;;;;;;11.33;9.53;;;;;;;4.30;89.08;100384.06;5067861;28;20028;-63
2021/12/05 15:04:32;;;;;;;11.87;10.07;;;;;;;4.34;89.12;100398.63;5068887;28;20024;-63
2021/12/05 15:06:58;;;;;;;12.93;9.93;;;;;;;4.31;88.88;100404.97;5067940;28;20118;-64
2021/12/05 15:09:29;;;;;;;12.60;9.80;;;;;;;4.28;88.92;100401.78;5070672;28;20154;-63
2021/12/05 15:12:08;;;;;;;11.57;10.03;;;;;;;4.28;88.78;100409.69;5071908;28;20036;-64
2021/12/05 15:14:35;;;;;;;11.60;10.00;;;;;;;4.25;88.86;100420.47;5071387;28;20053;-63
2021/12/05 15:17:12;;;;;;;10.87;9.73;;;;;;;4.28;88.72;100421.03;5069971;28;20080;-63
2021/12/05 15:19:41;;;;;;;11.63;9.53;;;;;;;4.26;88.73;100425.59;5062078;28;20024;-63
2021/12/05 15:22:09;;;;;;;10.52;9.43;;;;;;;4.25;88.70;100430.97;5067200;28;20028;-63
2021/12/05 15:24:34;;;;;;;11.73;9.77;;;;;;;4.22;88.74;100429.47;5063741;28;20028;-63
2021/12/05 15:27:09;;;;;;;10.87;9.43;;;;;;;4.25;88.56;100441.50;5062038;28;20103;-63
2021/12/05 15:29:35;;;;;;;12.00;10.13;;;;;;;4.26;88.62;100441.34;5064853;28;20077;-64
2021/12/05 15:32:00;;;;;;;11.20;10.00;;;;;;;4.29;88.77;100448.13;5068966;28;20032;-63
2021/12/05 15:34:32;;;;;;;11.90;10.03;;;;;;;4.29;88.98;100464.72;5064550;28;20017;-63
2021/12/05 15:37:04;;;;;;;12.60;10.53;;;;;;;4.24;89.19;100461.69;5059655;28;20686;-63
2021/12/05 15:39:30;;;;;;;12.87;10.60;;;;;;;4.28;88.68;100468.31;5060741;28;20037;-64
2021/12/05 15:41:57;;;;;;;12.63;10.53;;;;;;;4.27;88.77;100476.34;5066736;28;20077;-64
2021/12/05 15:44:24;;;;;;;12.13;10.63;;;;;;;4.29;88.72;100479.66;5065245;28;20024;-64
2021/12/05 15:46:49;;;;;;;13.20;10.27;;;;;;;4.30;89.02;100482.16;5064813;28;20427;-64
2021/12/05 15:49:15;;;;;;;13.70;10.63;;;;;;;4.26;89.21;100474.69;5060887;28;20119;-63
2021/12/05 15:51:40;;;;;;;13.83;10.97;;;;;;;4.28;89.04;100481.47;5065272;28;20025;-64
2021/12/05 15:54:06;;;;;;;12.87;10.93;;;;;;;4.29;89.50;100490.19;5066801;28;20396;-64
2021/12/05 15:56:31;;;;;;;15.00;11.33;;;;;;;4.27;89.51;100492.13;5064522;28;20056;-64
2021/12/05 15:59:02;;;;;;;12.30;10.77;;;;;;;4.26;89.24;100487.84;5063747;28;20040;-64
2021/12/05 16:01:29;;;;;;;13.27;11.40;;;;;;;4.25;89.08;100497.53;5064725;28;20040;-64
2021/12/05 16:03:58;;;;;;;14.60;11.23;;;;;;;4.24;89.19;100506.38;5064868;28;20020;-64
2021/12/05 16:06:34;;;;;;;13.82;12.13;;;;;;;4.22;88.90;100507.47;5068048;28;20442;-64
2021/12/05 16:09:13;;;;;;;15.77;12.13;;;;;;;4.22;89.02;100504.84;5063409;28;20020;-63
2021/12/05 16:11:38;;;;;;;15.37;12.27;;;;;;;4.22;89.13;100510.09;5063720;28;20024;-63
2021/12/05 16:14:03;;;;;;;14.33;11.90;;;;;;;4.22;89.22;100510.09;5061753;28;20115;-63
2021/12/05 16:16:29;;;;;;;17.10;12.60;;;;;;;4.24;89.39;100519.50;5061549;28;20054;-63
2021/12/05 16:19:00;;;;;;;18.37;14.10;;;;;;;4.25;89.70;100520.34;5060820;28;20123;-63
2021/12/05 16:21:28;;;;;;;15.07;11.97;;;;;;;4.26;89.37;100524.63;5064790;28;20097;-63
2021/12/05 16:23:56;;;;;;;12.50;10.47;;;;;;;4.32;89.34;100537.22;5061252;28;20123;-63
2021/12/05 16:26:27;;;;;;;13.97;10.67;;;;;;;4.28;89.53;100535.84;5062294;28;20024;-64
2021/12/05 16:28:58;;;;;;;14.07;10.73;;;;;;;4.33;89.41;100550.22;5060873;28;20115;-64
2021/12/05 16:31:41;;;;;;;11.70;10.40;;;;;;;4.33;89.33;100554.66;5061250;28;20025;-64
2021/12/05 16:34:10;;;;;;;12.17;10.03;;;;;;;4.32;89.47;100563.50;5060682;28;20035;-63
2021/12/05 16:36:42;;;;;;;11.70;9.82;;;;;;;4.32;89.97;100558.25;5061724;28;20495;-63
2021/12/05 16:39:21;;;;;;;12.80;9.80;;;;;;;4.32;89.70;100564.34;5062945;28;20081;-64